Terminal Aerodrome Forecast
Issued by NWS

Home | Current Version | Previous Version | Text Only | Print | Product List | Glossary On
Versions: 1 2 3 4 5 6 7 8 9 10 11 12 13 14 15 16 17 18 19 20
000
FTUS46 KSGX 041816 CCA
TAFSNA
TAF COR
KSNA 041816Z 0418/0518 VRB04KT P6SM SCT018
     FM042000 23008KT P6SM FEW020
     FM050000 VRB04KT P6SM FEW012
     FM050600 VRB03KT P6SM OVC012=

USA.gov is the U.S. government's official web portal to all federal, state and local government web resources and services.